sensor_id;sensor_type;location;lat;lon;timestamp;pressure;altitude;pressure_sealevel;temperature;humidity
37291;BME280;23175;-33.706;151.094;2024-02-23T00:00:20;99046.76;;;24.18;42.09
37291;BME280;23175;-33.706;151.094;2024-02-23T00:02:49;99050.07;;;27.37;38.52
37291;BME280;23175;-33.706;151.094;2024-02-23T00:05:19;99046.29;;;27.43;38.15
37291;BME280;23175;-33.706;151.094;2024-02-23T00:07:50;99054.80;;;27.16;38.26
37291;BME280;23175;-33.706;151.094;2024-02-23T00:10:19;99058.44;;;26.59;38.74
37291;BME280;23175;-33.706;151.094;2024-02-23T00:12:50;99047.09;;;27.66;36.94
37291;BME280;23175;-33.706;151.094;2024-02-23T00:15:20;99048.61;;;24.97;40.18
37291;BME280;23175;-33.706;151.094;2024-02-23T00:17:50;99044.68;;;25.02;39.32
37291;BME280;23175;-33.706;151.094;2024-02-23T00:20:20;99042.44;;;24.76;40.50
37291;BME280;23175;-33.706;151.094;2024-02-23T00:22:50;99037.79;;;25.01;40.43
37291;BME280;23175;-33.706;151.094;2024-02-23T00:25:20;99038.54;;;25.93;40.42
37291;BME280;23175;-33.706;151.094;2024-02-23T00:27:50;99037.30;;;27.04;38.58
37291;BME280;23175;-33.706;151.094;2024-02-23T00:30:20;99036.68;;;27.24;38.61
37291;BME280;23175;-33.706;151.094;2024-02-23T00:32:50;99032.65;;;27.16;38.57
37291;BME280;23175;-33.706;151.094;2024-02-23T00:35:20;99026.50;;;28.94;35.63
37291;BME280;23175;-33.706;151.094;2024-02-23T00:37:50;99023.93;;;27.90;37.32
37291;BME280;23175;-33.706;151.094;2024-02-23T00:40:20;99019.25;;;28.74;36.04
37291;BME280;23175;-33.706;151.094;2024-02-23T00:42:50;99016.83;;;27.39;38.00
37291;BME280;23175;-33.706;151.094;2024-02-23T00:45:20;99011.36;;;28.64;37.01
37291;BME280;23175;-33.706;151.094;2024-02-23T00:47:50;99010.06;;;28.13;37.44
37291;BME280;23175;-33.706;151.094;2024-02-23T00:50:20;99003.92;;;27.06;39.19
37291;BME280;23175;-33.706;151.094;2024-02-23T00:52:50;99002.53;;;29.04;36.20
37291;BME280;23175;-33.706;151.094;2024-02-23T00:55:20;99004.91;;;25.07;41.11
37291;BME280;23175;-33.706;151.094;2024-02-23T00:57:50;99000.20;;;25.37;40.88
37291;BME280;23175;-33.706;151.094;2024-02-23T01:00:20;98995.35;;;26.09;40.37
37291;BME280;23175;-33.706;151.094;2024-02-23T01:02:50;98990.84;;;25.93;39.20
37291;BME280;23175;-33.706;151.094;2024-02-23T01:05:20;98986.36;;;27.33;38.06
37291;BME280;23175;-33.706;151.094;2024-02-23T01:07:50;98985.67;;;28.34;37.92
37291;BME280;23175;-33.706;151.094;2024-02-23T01:10:20;98985.35;;;27.96;37.31
37291;BME280;23175;-33.706;151.094;2024-02-23T01:12:50;98983.83;;;27.37;39.67
37291;BME280;23175;-33.706;151.094;2024-02-23T01:15:20;98975.88;;;27.33;39.05
37291;BME280;23175;-33.706;151.094;2024-02-23T01:17:50;98972.30;;;26.28;39.58
37291;BME280;23175;-33.706;151.094;2024-02-23T01:20:20;98966.01;;;27.36;36.88
37291;BME280;23175;-33.706;151.094;2024-02-23T01:22:50;98970.07;;;26.83;39.17
37291;BME280;23175;-33.706;151.094;2024-02-23T01:25:25;98963.05;;;28.17;36.72
37291;BME280;23175;-33.706;151.094;2024-02-23T01:27:55;98959.61;;;26.82;37.75
37291;BME280;23175;-33.706;151.094;2024-02-23T01:30:25;98953.37;;;27.45;37.46
37291;BME280;23175;-33.706;151.094;2024-02-23T01:32:55;98952.58;;;30.35;33.47
37291;BME280;23175;-33.706;151.094;2024-02-23T01:35:25;98945.85;;;26.94;37.13
37291;BME280;23175;-33.706;151.094;2024-02-23T01:37:55;98942.89;;;27.84;36.70
37291;BME280;23175;-33.706;151.094;2024-02-23T01:40:25;98941.82;;;26.80;36.10
37291;BME280;23175;-33.706;151.094;2024-02-23T01:43:03;98941.90;;;27.70;36.51
37291;BME280;23175;-33.706;151.094;2024-02-23T01:45:33;98935.39;;;26.80;35.82
37291;BME280;23175;-33.706;151.094;2024-02-23T01:48:03;98939.38;;;26.45;37.81
37291;BME280;23175;-33.706;151.094;2024-02-23T01:50:34;98937.81;;;26.65;36.41
37291;BME280;23175;-33.706;151.094;2024-02-23T01:53:04;98935.63;;;27.43;37.00
37291;BME280;23175;-33.706;151.094;2024-02-23T01:55:35;98931.27;;;26.74;36.21
37291;BME280;23175;-33.706;151.094;2024-02-23T01:58:06;98929.59;;;29.63;33.76
37291;BME280;23175;-33.706;151.094;2024-02-23T02:00:37;98928.81;;;27.80;35.52
37291;BME280;23175;-33.706;151.094;2024-02-23T02:03:07;98924.34;;;28.61;34.83
37291;BME280;23175;-33.706;151.094;2024-02-23T02:05:37;98926.54;;;28.24;35.29
37291;BME280;23175;-33.706;151.094;2024-02-23T02:08:08;98922.65;;;27.25;35.38
37291;BME280;23175;-33.706;151.094;2024-02-23T02:10:39;98912.87;;;26.58;35.93
37291;BME280;23175;-33.706;151.094;2024-02-23T02:13:09;98907.57;;;28.72;33.97
37291;BME280;23175;-33.706;151.094;2024-02-23T02:15:40;98902.47;;;27.32;36.33
37291;BME280;23175;-33.706;151.094;2024-02-23T02:18:09;98903.32;;;27.87;35.41
37291;BME280;23175;-33.706;151.094;2024-02-23T02:20:47;98895.00;;;28.01;36.56
37291;BME280;23175;-33.706;151.094;2024-02-23T02:23:20;98895.88;;;29.21;33.64
37291;BME280;23175;-33.706;151.094;2024-02-23T02:25:55;98892.27;;;29.49;34.18
37291;BME280;23175;-33.706;151.094;2024-02-23T02:28:27;98888.51;;;31.21;31.78
37291;BME280;23175;-33.706;151.094;2024-02-23T02:30:57;98890.19;;;28.33;36.12
37291;BME280;23175;-33.706;151.094;2024-02-23T02:33:27;98888.07;;;28.15;34.86
37291;BME280;23175;-33.706;151.094;2024-02-23T02:35:57;98884.01;;;30.09;31.82
37291;BME280;23175;-33.706;151.094;2024-02-23T02:38:28;98877.88;;;28.23;35.01
37291;BME280;23175;-33.706;151.094;2024-02-23T02:40:58;98884.65;;;29.58;33.00
37291;BME280;23175;-33.706;151.094;2024-02-23T02:43:28;98882.32;;;29.20;34.16
37291;BME280;23175;-33.706;151.094;2024-02-23T02:45:59;98883.97;;;29.19;32.61
37291;BME280;23175;-33.706;151.094;2024-02-23T02:48:29;98880.31;;;29.28;33.31
37291;BME280;23175;-33.706;151.094;2024-02-23T02:50:59;98880.92;;;28.90;33.14
37291;BME280;23175;-33.706;151.094;2024-02-23T02:53:29;98878.26;;;29.48;31.97
37291;BME280;23175;-33.706;151.094;2024-02-23T02:55:59;98871.84;;;27.78;34.22
37291;BME280;23175;-33.706;151.094;2024-02-23T02:58:30;98870.70;;;27.84;34.35
37291;BME280;23175;-33.706;151.094;2024-02-23T03:00:59;98876.48;;;28.49;33.70
37291;BME280;23175;-33.706;151.094;2024-02-23T03:03:30;98868.16;;;27.37;35.53
37291;BME280;23175;-33.706;151.094;2024-02-23T03:06:00;98867.42;;;28.51;34.43
37291;BME280;23175;-33.706;151.094;2024-02-23T03:08:30;98864.16;;;29.74;33.55
37291;BME280;23175;-33.706;151.094;2024-02-23T03:11:00;98857.26;;;29.86;33.51
37291;BME280;23175;-33.706;151.094;2024-02-23T03:13:30;98853.58;;;28.89;34.52
37291;BME280;23175;-33.706;151.094;2024-02-23T03:16:00;98848.99;;;32.56;30.61
37291;BME280;23175;-33.706;151.094;2024-02-23T03:18:30;98847.89;;;28.14;34.98
37291;BME280;23175;-33.706;151.094;2024-02-23T03:21:00;98847.52;;;29.23;33.86
37291;BME280;23175;-33.706;151.094;2024-02-23T03:23:30;98838.58;;;28.09;35.89
37291;BME280;23175;-33.706;151.094;2024-02-23T03:26:00;98833.50;;;28.41;35.17
37291;BME280;23175;-33.706;151.094;2024-02-23T03:28:30;98835.36;;;28.64;35.79
37291;BME280;23175;-33.706;151.094;2024-02-23T03:31:01;98832.45;;;29.52;34.57
37291;BME280;23175;-33.706;151.094;2024-02-23T03:33:31;98833.11;;;29.96;33.83
37291;BME280;23175;-33.706;151.094;2024-02-23T03:36:02;98826.66;;;27.55;38.07
37291;BME280;23175;-33.706;151.094;2024-02-23T03:38:32;98823.37;;;27.12;36.62
37291;BME280;23175;-33.706;151.094;2024-02-23T03:41:02;98821.02;;;30.21;33.04
37291;BME280;23175;-33.706;151.094;2024-02-23T03:43:32;98818.19;;;29.99;33.75
37291;BME280;23175;-33.706;151.094;2024-02-23T03:46:02;98811.56;;;30.15;33.03
37291;BME280;23175;-33.706;151.094;2024-02-23T03:48:32;98808.70;;;29.31;33.97
37291;BME280;23175;-33.706;151.094;2024-02-23T03:51:03;98804.62;;;28.49;35.66
37291;BME280;23175;-33.706;151.094;2024-02-23T03:53:33;98800.82;;;28.05;34.07
37291;BME280;23175;-33.706;151.094;2024-02-23T03:56:04;98798.61;;;29.12;32.37
37291;BME280;23175;-33.706;151.094;2024-02-23T03:58:34;98794.83;;;29.62;31.87
37291;BME280;23175;-33.706;151.094;2024-02-23T04:01:04;98782.64;;;27.19;34.32
37291;BME280;23175;-33.706;151.094;2024-02-23T04:03:34;98773.42;;;30.17;31.15
37291;BME280;23175;-33.706;151.094;2024-02-23T04:06:05;98769.86;;;29.35;32.42
37291;BME280;23175;-33.706;151.094;2024-02-23T04:08:35;98765.27;;;29.49;31.62
37291;BME280;23175;-33.706;151.094;2024-02-23T04:11:05;98768.64;;;29.53;32.96
37291;BME280;23175;-33.706;151.094;2024-02-23T04:13:35;98763.00;;;29.18;31.59
37291;BME280;23175;-33.706;151.094;2024-02-23T04:16:05;98761.82;;;28.26;35.23
37291;BME280;23175;-33.706;151.094;2024-02-23T04:18:35;98758.04;;;29.47;31.28
37291;BME280;23175;-33.706;151.094;2024-02-23T04:21:05;98757.19;;;28.93;33.01
37291;BME280;23175;-33.706;151.094;2024-02-23T04:23:35;98749.29;;;29.56;33.26
37291;BME280;23175;-33.706;151.094;2024-02-23T04:26:05;98747.74;;;28.92;33.27
37291;BME280;23175;-33.706;151.094;2024-02-23T04:28:35;98742.81;;;27.36;33.92
37291;BME280;23175;-33.706;151.094;2024-02-23T04:31:08;98734.72;;;28.67;32.84
37291;BME280;23175;-33.706;151.094;2024-02-23T04:33:38;98722.85;;;29.93;31.98
37291;BME280;23175;-33.706;151.094;2024-02-23T04:36:08;98716.00;;;31.31;30.48
37291;BME280;23175;-33.706;151.094;2024-02-23T04:38:38;98714.97;;;29.75;31.59
37291;BME280;23175;-33.706;151.094;2024-02-23T04:41:08;98705.73;;;29.27;33.10
37291;BME280;23175;-33.706;151.094;2024-02-23T04:43:38;98708.25;;;29.15;30.89
37291;BME280;23175;-33.706;151.094;2024-02-23T04:46:08;98696.95;;;28.80;31.99
37291;BME280;23175;-33.706;151.094;2024-02-23T04:48:38;98692.39;;;30.22;30.09
37291;BME280;23175;-33.706;151.094;2024-02-23T04:51:08;98691.35;;;31.94;28.24
37291;BME280;23175;-33.706;151.094;2024-02-23T04:53:38;98697.38;;;29.71;31.65
37291;BME280;23175;-33.706;151.094;2024-02-23T04:56:09;98698.80;;;30.20;31.86
37291;BME280;23175;-33.706;151.094;2024-02-23T04:58:38;98690.47;;;30.65;29.25
37291;BME280;23175;-33.706;151.094;2024-02-23T05:01:08;98687.28;;;30.65;29.27
37291;BME280;23175;-33.706;151.094;2024-02-23T05:03:38;98686.85;;;29.23;29.81
37291;BME280;23175;-33.706;151.094;2024-02-23T05:06:08;98681.78;;;29.64;28.79
37291;BME280;23175;-33.706;151.094;2024-02-23T05:08:38;98682.99;;;30.89;28.17
37291;BME280;23175;-33.706;151.094;2024-02-23T05:11:08;98678.21;;;28.32;30.78
37291;BME280;23175;-33.706;151.094;2024-02-23T05:13:38;98673.00;;;30.85;27.01
37291;BME280;23175;-33.706;151.094;2024-02-23T05:16:08;98672.74;;;30.73;28.59
37291;BME280;23175;-33.706;151.094;2024-02-23T05:18:38;98665.26;;;29.01;28.82
37291;BME280;23175;-33.706;151.094;2024-02-23T05:21:08;98662.43;;;30.04;28.20
37291;BME280;23175;-33.706;151.094;2024-02-23T05:23:38;98658.02;;;28.54;29.65
37291;BME280;23175;-33.706;151.094;2024-02-23T05:26:08;98659.10;;;30.87;27.33
37291;BME280;23175;-33.706;151.094;2024-02-23T05:28:37;98655.55;;;30.64;27.47
37291;BME280;23175;-33.706;151.094;2024-02-23T05:31:12;98653.36;;;30.90;27.99
37291;BME280;23175;-33.706;151.094;2024-02-23T05:33:42;98658.31;;;29.10;29.18
37291;BME280;23175;-33.706;151.094;2024-02-23T05:36:12;98646.68;;;29.67;27.25
37291;BME280;23175;-33.706;151.094;2024-02-23T05:38:42;98650.85;;;30.11;26.57
37291;BME280;23175;-33.706;151.094;2024-02-23T05:41:13;98653.46;;;29.04;28.60
37291;BME280;23175;-33.706;151.094;2024-02-23T05:43:44;98653.59;;;31.09;24.82
37291;BME280;23175;-33.706;151.094;2024-02-23T05:46:14;98657.23;;;30.41;26.44
37291;BME280;23175;-33.706;151.094;2024-02-23T05:48:44;98662.00;;;29.93;27.28
37291;BME280;23175;-33.706;151.094;2024-02-23T05:51:13;98664.02;;;31.96;25.00
37291;BME280;23175;-33.706;151.094;2024-02-23T05:53:43;98669.49;;;29.68;26.93
37291;BME280;23175;-33.706;151.094;2024-02-23T05:56:13;98667.27;;;30.18;26.35
37291;BME280;23175;-33.706;151.094;2024-02-23T05:58:43;98683.31;;;30.53;25.80
37291;BME280;23175;-33.706;151.094;2024-02-23T06:01:13;98687.60;;;29.49;25.76
37291;BME280;23175;-33.706;151.094;2024-02-23T06:03:43;98696.14;;;29.72;26.75
37291;BME280;23175;-33.706;151.094;2024-02-23T06:06:13;98734.52;;;32.12;24.45
37291;BME280;23175;-33.706;151.094;2024-02-23T06:08:43;98754.89;;;29.16;29.54
37291;BME280;23175;-33.706;151.094;2024-02-23T06:11:13;98759.12;;;26.54;33.71
37291;BME280;23175;-33.706;151.094;2024-02-23T06:13:43;98770.08;;;25.46;36.03
37291;BME280;23175;-33.706;151.094;2024-02-23T06:16:13;98778.18;;;27.38;34.92
37291;BME280;23175;-33.706;151.094;2024-02-23T06:18:43;98778.41;;;25.59;37.44
37291;BME280;23175;-33.706;151.094;2024-02-23T06:21:15;98784.13;;;25.13;38.28
37291;BME280;23175;-33.706;151.094;2024-02-23T06:23:45;98791.72;;;24.84;39.26
37291;BME280;23175;-33.706;151.094;2024-02-23T06:26:15;98784.36;;;27.82;36.21
37291;BME280;23175;-33.706;151.094;2024-02-23T06:28:45;98781.60;;;25.86;38.27
37291;BME280;23175;-33.706;151.094;2024-02-23T06:31:15;98793.42;;;26.16;37.99
37291;BME280;23175;-33.706;151.094;2024-02-23T06:33:45;98793.35;;;24.99;40.17
37291;BME280;23175;-33.706;151.094;2024-02-23T06:36:15;98791.90;;;26.10;38.87
37291;BME280;23175;-33.706;151.094;2024-02-23T06:38:45;98800.19;;;26.19;42.11
37291;BME280;23175;-33.706;151.094;2024-02-23T06:41:15;98818.71;;;24.62;45.28
37291;BME280;23175;-33.706;151.094;2024-02-23T06:43:46;98809.17;;;23.95;46.49
37291;BME280;23175;-33.706;151.094;2024-02-23T06:46:16;98798.14;;;24.70;47.30
37291;BME280;23175;-33.706;151.094;2024-02-23T06:48:48;98804.79;;;25.03;46.45
37291;BME280;23175;-33.706;151.094;2024-02-23T06:51:25;98848.37;;;26.22;46.21
37291;BME280;23175;-33.706;151.094;2024-02-23T06:53:55;98891.80;;;23.96;50.39
37291;BME280;23175;-33.706;151.094;2024-02-23T06:56:25;98901.11;;;23.90;51.08
37291;BME280;23175;-33.706;151.094;2024-02-23T06:58:55;98893.07;;;20.14;57.28
37291;BME280;23175;-33.706;151.094;2024-02-23T07:01:25;98894.13;;;22.70;51.01
37291;BME280;23175;-33.706;151.094;2024-02-23T07:03:55;98915.28;;;22.88;52.09
37291;BME280;23175;-33.706;151.094;2024-02-23T07:06:25;98927.10;;;22.03;53.46
37291;BME280;23175;-33.706;151.094;2024-02-23T07:08:55;98953.80;;;21.42;54.86
37291;BME280;23175;-33.706;151.094;2024-02-23T07:11:26;98977.91;;;22.06;53.71
37291;BME280;23175;-33.706;151.094;2024-02-23T07:13:56;98999.81;;;22.56;52.51
37291;BME280;23175;-33.706;151.094;2024-02-23T07:16:26;99014.82;;;21.21;55.65
37291;BME280;23175;-33.706;151.094;2024-02-23T07:18:56;98996.26;;;22.99;52.38
37291;BME280;23175;-33.706;151.094;2024-02-23T07:21:27;98978.58;;;22.26;55.43
37291;BME280;23175;-33.706;151.094;2024-02-23T07:23:58;98967.83;;;23.14;55.52
37291;BME280;23175;-33.706;151.094;2024-02-23T07:26:28;98964.32;;;20.28;61.40
37291;BME280;23175;-33.706;151.094;2024-02-23T07:28:58;98945.60;;;22.41;59.53
37291;BME280;23175;-33.706;151.094;2024-02-23T07:31:29;98955.12;;;23.85;54.80
37291;BME280;23175;-33.706;151.094;2024-02-23T07:33:58;98945.32;;;22.42;58.58
37291;BME280;23175;-33.706;151.094;2024-02-23T07:36:29;98918.81;;;22.30;56.98
37291;BME280;23175;-33.706;151.094;2024-02-23T07:38:59;98909.46;;;20.40;62.57
37291;BME280;23175;-33.706;151.094;2024-02-23T07:41:29;98886.81;;;24.32;52.88
37291;BME280;23175;-33.706;151.094;2024-02-23T07:43:59;98889.95;;;21.50;59.64
37291;BME280;23175;-33.706;151.094;2024-02-23T07:46:29;98885.72;;;24.23;54.72
37291;BME280;23175;-33.706;151.094;2024-02-23T07:48:59;98864.79;;;22.75;57.47
37291;BME280;23175;-33.706;151.094;2024-02-23T07:51:31;98844.64;;;23.88;55.79
37291;BME280;23175;-33.706;151.094;2024-02-23T07:54:00;98813.51;;;22.63;56.81
37291;BME280;23175;-33.706;151.094;2024-02-23T07:56:31;98785.71;;;21.82;56.52
37291;BME280;23175;-33.706;151.094;2024-02-23T07:59:00;98794.21;;;20.76;58.80
37291;BME280;23175;-33.706;151.094;2024-02-23T08:01:30;98801.52;;;21.54;59.39
37291;BME280;23175;-33.706;151.094;2024-02-23T08:04:00;98844.35;;;22.24;58.15
37291;BME280;23175;-33.706;151.094;2024-02-23T08:06:31;98892.11;;;21.74;59.55
37291;BME280;23175;-33.706;151.094;2024-02-23T08:09:01;98915.75;;;23.25;56.00
37291;BME280;23175;-33.706;151.094;2024-02-23T08:11:31;98937.11;;;22.81;56.23
37291;BME280;23175;-33.706;151.094;2024-02-23T08:14:01;98939.29;;;23.81;53.23
37291;BME280;23175;-33.706;151.094;2024-02-23T08:16:31;98931.03;;;22.49;55.21
37291;BME280;23175;-33.706;151.094;2024-02-23T08:19:02;98928.68;;;26.02;49.44
37291;BME280;23175;-33.706;151.094;2024-02-23T08:21:32;98941.06;;;26.02;48.60
37291;BME280;23175;-33.706;151.094;2024-02-23T08:24:02;98950.99;;;24.73;50.37
37291;BME280;23175;-33.706;151.094;2024-02-23T08:26:32;98934.63;;;23.11;53.20
37291;BME280;23175;-33.706;151.094;2024-02-23T08:29:02;98922.72;;;21.75;54.74
37291;BME280;23175;-33.706;151.094;2024-02-23T08:31:32;98932.99;;;25.48;49.04
37291;BME280;23175;-33.706;151.094;2024-02-23T08:34:02;98952.32;;;25.54;49.07
37291;BME280;23175;-33.706;151.094;2024-02-23T08:36:32;98962.34;;;26.44;47.14
37291;BME280;23175;-33.706;151.094;2024-02-23T08:39:02;98970.29;;;26.55;47.17
37291;BME280;23175;-33.706;151.094;2024-02-23T08:41:32;98968.83;;;24.28;51.23
37291;BME280;23175;-33.706;151.094;2024-02-23T08:44:02;98978.78;;;25.26;49.95
37291;BME280;23175;-33.706;151.094;2024-02-23T08:46:33;98999.27;;;26.10;49.07
37291;BME280;23175;-33.706;151.094;2024-02-23T08:49:04;99020.61;;;25.92;48.60
37291;BME280;23175;-33.706;151.094;2024-02-23T08:51:34;99040.93;;;25.84;48.68
37291;BME280;23175;-33.706;151.094;2024-02-23T08:54:05;99051.67;;;25.85;49.10
37291;BME280;23175;-33.706;151.094;2024-02-23T08:56:38;99061.68;;;23.01;53.65
37291;BME280;23175;-33.706;151.094;2024-02-23T08:59:08;99072.32;;;25.69;49.57
37291;BME280;23175;-33.706;151.094;2024-02-23T09:01:38;99084.06;;;25.45;49.95
37291;BME280;23175;-33.706;151.094;2024-02-23T09:04:08;99107.32;;;25.64;49.21
37291;BME280;23175;-33.706;151.094;2024-02-23T09:06:38;99130.70;;;24.00;51.12
37291;BME280;23175;-33.706;151.094;2024-02-23T09:09:08;99132.20;;;24.69;49.17
37291;BME280;23175;-33.706;151.094;2024-02-23T09:11:39;99146.61;;;24.44;49.75
37291;BME280;23175;-33.706;151.094;2024-02-23T09:14:08;99156.85;;;24.85;49.52
37291;BME280;23175;-33.706;151.094;2024-02-23T09:16:38;99156.70;;;25.41;48.54
37291;BME280;23175;-33.706;151.094;2024-02-23T09:19:08;99158.18;;;24.96;48.84
37291;BME280;23175;-33.706;151.094;2024-02-23T09:21:39;99177.02;;;23.13;51.33
37291;BME280;23175;-33.706;151.094;2024-02-23T09:24:09;99163.82;;;21.02;56.54
37291;BME280;23175;-33.706;151.094;2024-02-23T09:26:39;99175.23;;;24.58;50.80
37291;BME280;23175;-33.706;151.094;2024-02-23T09:29:09;99191.02;;;21.42;55.91
37291;BME280;23175;-33.706;151.094;2024-02-23T09:31:39;99189.08;;;22.23;54.33
37291;BME280;23175;-33.706;151.094;2024-02-23T09:34:09;99186.29;;;24.59;50.38
37291;BME280;23175;-33.706;151.094;2024-02-23T09:36:39;99190.24;;;25.23;48.67
37291;BME280;23175;-33.706;151.094;2024-02-23T09:39:09;99199.37;;;24.95;49.85
37291;BME280;23175;-33.706;151.094;2024-02-23T09:41:40;99199.14;;;22.79;53.54
37291;BME280;23175;-33.706;151.094;2024-02-23T09:44:11;99197.28;;;21.02;56.58
37291;BME280;23175;-33.706;151.094;2024-02-23T09:46:45;99211.08;;;24.59;50.80
37291;BME280;23175;-33.706;151.094;2024-02-23T09:49:16;99220.01;;;24.47;50.43
37291;BME280;23175;-33.706;151.094;2024-02-23T09:51:46;99231.90;;;25.69;48.75
37291;BME280;23175;-33.706;151.094;2024-02-23T09:54:16;99246.06;;;23.61;52.56
37291;BME280;23175;-33.706;151.094;2024-02-23T09:56:46;99251.35;;;21.95;56.58
37291;BME280;23175;-33.706;151.094;2024-02-23T09:59:16;99242.75;;;24.58;51.71
37291;BME280;23175;-33.706;151.094;2024-02-23T10:01:46;99254.37;;;22.67;54.87
37291;BME280;23175;-33.706;151.094;2024-02-23T10:04:17;99266.47;;;24.00;53.35
37291;BME280;23175;-33.706;151.094;2024-02-23T10:06:48;99280.09;;;22.70;55.41
37291;BME280;23175;-33.706;151.094;2024-02-23T10:09:19;99287.25;;;23.08;54.93
37291;BME280;23175;-33.706;151.094;2024-02-23T10:11:54;99299.09;;;23.85;52.88
37291;BME280;23175;-33.706;151.094;2024-02-23T10:14:24;99300.65;;;24.04;52.06
37291;BME280;23175;-33.706;151.094;2024-02-23T10:16:54;99299.20;;;24.92;51.43
37291;BME280;23175;-33.706;151.094;2024-02-23T10:19:25;99296.40;;;21.96;55.68
37291;BME280;23175;-33.706;151.094;2024-02-23T10:21:54;99290.15;;;23.99;53.27
37291;BME280;23175;-33.706;151.094;2024-02-23T10:24:25;99290.98;;;24.82;51.30
37291;BME280;23175;-33.706;151.094;2024-02-23T10:26:55;99290.93;;;23.00;53.89
37291;BME280;23175;-33.706;151.094;2024-02-23T10:29:27;99299.51;;;22.62;54.82
37291;BME280;23175;-33.706;151.094;2024-02-23T10:31:58;99308.23;;;21.30;58.11
37291;BME280;23175;-33.706;151.094;2024-02-23T10:34:31;99309.41;;;24.35;53.19
37291;BME280;23175;-33.706;151.094;2024-02-23T10:37:01;99312.74;;;23.88;53.94
37291;BME280;23175;-33.706;151.094;2024-02-23T10:39:34;99314.20;;;23.24;55.45
37291;BME280;23175;-33.706;151.094;2024-02-23T10:42:07;99321.49;;;23.58;55.38
37291;BME280;23175;-33.706;151.094;2024-02-23T10:44:38;99326.52;;;22.83;56.57
37291;BME280;23175;-33.706;151.094;2024-02-23T10:47:08;99331.76;;;24.06;55.88
37291;BME280;23175;-33.706;151.094;2024-02-23T10:49:40;99336.58;;;23.99;55.00
37291;BME280;23175;-33.706;151.094;2024-02-23T10:52:11;99340.78;;;23.05;57.40
37291;BME280;23175;-33.706;151.094;2024-02-23T10:54:42;99343.49;;;23.75;56.48
37291;BME280;23175;-33.706;151.094;2024-02-23T10:57:16;99348.13;;;25.04;53.59
37291;BME280;23175;-33.706;151.094;2024-02-23T10:59:48;99359.25;;;23.17;57.20
37291;BME280;23175;-33.706;151.094;2024-02-23T11:02:21;99367.81;;;25.28;52.28
37291;BME280;23175;-33.706;151.094;2024-02-23T11:04:53;99374.42;;;20.08;62.37
37291;BME280;23175;-33.706;151.094;2024-02-23T11:07:24;99373.26;;;23.43;56.35
37291;BME280;23175;-33.706;151.094;2024-02-23T11:09:59;99380.83;;;22.73;55.41
37291;BME280;23175;-33.706;151.094;2024-02-23T11:12:31;99387.87;;;22.93;54.81
37291;BME280;23175;-33.706;151.094;2024-02-23T11:15:02;99392.89;;;23.01;54.47
37291;BME280;23175;-33.706;151.094;2024-02-23T11:17:34;99406.36;;;22.24;55.85
37291;BME280;23175;-33.706;151.094;2024-02-23T11:20:05;99420.64;;;23.70;53.05
37291;BME280;23175;-33.706;151.094;2024-02-23T11:22:36;99424.65;;;22.64;55.01
37291;BME280;23175;-33.706;151.094;2024-02-23T11:25:07;99429.94;;;21.46;57.51
37291;BME280;23175;-33.706;151.094;2024-02-23T11:27:38;99432.64;;;22.57;55.10
37291;BME280;23175;-33.706;151.094;2024-02-23T11:30:09;99433.39;;;21.55;57.74
37291;BME280;23175;-33.706;151.094;2024-02-23T11:32:40;99438.16;;;19.19;63.32
37291;BME280;23175;-33.706;151.094;2024-02-23T11:35:13;99436.13;;;23.63;54.41
37291;BME280;23175;-33.706;151.094;2024-02-23T11:37:53;99438.21;;;23.52;54.86
37291;BME280;23175;-33.706;151.094;2024-02-23T11:40:23;99443.03;;;22.52;56.27
37291;BME280;23175;-33.706;151.094;2024-02-23T11:42:56;99451.61;;;21.87;56.74
37291;BME280;23175;-33.706;151.094;2024-02-23T11:45:26;99452.89;;;22.24;55.70
37291;BME280;23175;-33.706;151.094;2024-02-23T11:47:58;99447.63;;;22.30;56.13
37291;BME280;23175;-33.706;151.094;2024-02-23T11:50:28;99456.63;;;21.60;57.44
37291;BME280;23175;-33.706;151.094;2024-02-23T11:52:59;99456.73;;;22.44;56.09
37291;BME280;23175;-33.706;151.094;2024-02-23T11:55:29;99459.38;;;19.13;62.65
37291;BME280;23175;-33.706;151.094;2024-02-23T11:58:00;99463.59;;;19.34;62.03
37291;BME280;23175;-33.706;151.094;2024-02-23T12:00:31;99471.46;;;21.71;57.95
37291;BME280;23175;-33.706;151.094;2024-02-23T12:03:01;99469.96;;;22.98;55.12
37291;BME280;23175;-33.706;151.094;2024-02-23T12:05:31;99487.76;;;21.12;58.83
37291;BME280;23175;-33.706;151.094;2024-02-23T12:08:01;99474.57;;;23.19;54.21
37291;BME280;23175;-33.706;151.094;2024-02-23T12:10:31;99478.28;;;19.65;60.92
37291;BME280;23175;-33.706;151.094;2024-02-23T12:13:01;99463.68;;;22.87;54.02
37291;BME280;23175;-33.706;151.094;2024-02-23T12:15:32;99465.42;;;20.15;60.65
37291;BME280;23175;-33.706;151.094;2024-02-23T12:18:01;99471.47;;;22.83;55.11
37291;BME280;23175;-33.706;151.094;2024-02-23T12:20:35;99476.06;;;19.40;59.97
37291;BME280;23175;-33.706;151.094;2024-02-23T12:23:06;99484.17;;;21.97;56.59
37291;BME280;23175;-33.706;151.094;2024-02-23T12:25:36;99490.99;;;21.64;55.78
37291;BME280;23175;-33.706;151.094;2024-02-23T12:28:05;99502.18;;;19.74;59.30
37291;BME280;23175;-33.706;151.094;2024-02-23T12:30:35;99508.48;;;18.97;62.11
37291;BME280;23175;-33.706;151.094;2024-02-23T12:33:06;99510.40;;;18.73;62.43
37291;BME280;23175;-33.706;151.094;2024-02-23T12:35:36;99520.25;;;18.83;62.43
37291;BME280;23175;-33.706;151.094;2024-02-23T12:38:06;99520.93;;;18.65;63.47
37291;BME280;23175;-33.706;151.094;2024-02-23T12:40:36;99528.56;;;17.63;65.75
37291;BME280;23175;-33.706;151.094;2024-02-23T12:43:06;99529.88;;;17.93;65.70
37291;BME280;23175;-33.706;151.094;2024-02-23T12:45:36;99532.68;;;19.16;61.41